createdAt,value
2023-09-06T00:00:31.242Z,100505.59
2023-09-06T00:03:03.778Z,100509.72
2023-09-06T00:05:34.301Z,100510.13
2023-09-06T00:08:05.817Z,100514.22
2023-09-06T00:10:36.337Z,100503.25
2023-09-06T00:13:07.737Z,100511.03
2023-09-06T00:15:39.271Z,100517.16
2023-09-06T00:18:12.050Z,100512.69
2023-09-06T00:20:42.133Z,100513.91
2023-09-06T00:23:14.283Z,100518.03
2023-09-06T00:25:45.305Z,100516.44
2023-09-06T00:28:16.139Z,100517.66
2023-09-06T00:30:47.451Z,100518.09
2023-09-06T00:33:20.509Z,100523.78
2023-09-06T00:35:51.026Z,100532.00
2023-09-06T00:38:23.764Z,100530.38
2023-09-06T00:40:54.761Z,100525.09
2023-09-06T00:43:25.074Z,100523.47
2023-09-06T00:45:56.521Z,100518.22
2023-09-06T00:48:31.296Z,100521.06
2023-09-06T00:51:02.301Z,100515.81
2023-09-06T00:53:35.201Z,100518.66
2023-09-06T00:56:10.440Z,100514.19
2023-09-06T00:58:43.398Z,100515.44
2023-09-06T01:01:13.384Z,100514.59
2023-09-06T01:03:44.622Z,100511.75
2023-09-06T01:06:22.662Z,100510.16
2023-09-06T01:09:00.697Z,100515.06
2023-09-06T01:11:31.078Z,100517.53
2023-09-06T01:14:04.222Z,100511.03
2023-09-06T01:16:41.375Z,100511.47
2023-09-06T01:19:18.340Z,100517.97
2023-09-06T01:22:01.974Z,100516.34
2023-09-06T01:24:34.438Z,100523.75
2023-09-06T01:27:06.647Z,100518.84
2023-09-06T01:29:37.951Z,100522.91
2023-09-06T01:32:09.465Z,100528.63
2023-09-06T01:34:39.204Z,100519.34
2023-09-06T01:37:09.688Z,100520.97
2023-09-06T01:39:42.489Z,100523.00
2023-09-06T01:42:12.756Z,100527.06
2023-09-06T01:44:42.947Z,100525.47
2023-09-06T01:47:14.174Z,100525.88
2023-09-06T01:49:46.838Z,100528.72
2023-09-06T01:52:17.027Z,100522.22
2023-09-06T01:54:49.039Z,100526.31
2023-09-06T01:57:19.526Z,100526.31
2023-09-06T01:59:52.095Z,100528.78
2023-09-06T02:02:22.303Z,100532.88
2023-09-06T02:04:52.666Z,100524.75
2023-09-06T02:07:22.951Z,100531.69
2023-09-06T02:09:55.222Z,100526.78
2023-09-06T02:12:25.456Z,100522.31
2023-09-06T02:14:57.718Z,100529.25
2023-09-06T02:17:28.673Z,100524.81
2023-09-06T02:19:58.100Z,100521.16
2023-09-06T02:22:28.486Z,100521.59
2023-09-06T02:25:01.694Z,100518.28
2023-09-06T02:27:33.284Z,100523.63
2023-09-06T02:30:05.241Z,100519.97
2023-09-06T02:32:35.851Z,100524.06
2023-09-06T02:35:07.788Z,100525.31
2023-09-06T02:37:38.416Z,100520.41
2023-09-06T02:40:15.453Z,100520.41
2023-09-06T02:42:45.784Z,100522.88
2023-09-06T02:45:28.001Z,100527.78
2023-09-06T02:47:57.610Z,100531.06
2023-09-06T02:50:30.460Z,100538.00
2023-09-06T02:53:03.156Z,100534.34
2023-09-06T02:55:36.828Z,100534.34
2023-09-06T02:58:07.455Z,100544.94
2023-09-06T03:00:42.075Z,100542.91
2023-09-06T03:03:17.613Z,100547.78
2023-09-06T03:05:48.617Z,100551.88
2023-09-06T03:08:19.086Z,100556.78
2023-09-06T03:10:55.743Z,100553.94
2023-09-06T03:13:25.457Z,100555.19
2023-09-06T03:15:55.840Z,100556.41
2023-09-06T03:18:26.116Z,100560.06
2023-09-06T03:20:56.932Z,100563.34
2023-09-06T03:23:27.205Z,100560.06
2023-09-06T03:25:59.705Z,100572.72
2023-09-06T03:28:30.635Z,100569.06
2023-09-06T03:31:01.443Z,100571.13
2023-09-06T03:33:33.011Z,100571.13
2023-09-06T03:36:03.569Z,100567.44
2023-09-06T03:38:33.435Z,100563.78
2023-09-06T03:41:08.989Z,100570.28
2023-09-06T03:43:40.016Z,100570.28
2023-09-06T03:46:14.695Z,100576.00
2023-09-06T03:48:47.288Z,100576.81
2023-09-06T03:51:17.912Z,100577.63
2023-09-06T03:53:49.239Z,100574.75
2023-09-06T03:56:21.105Z,100577.16
2023-09-06T03:58:54.831Z,100582.09
2023-09-06T04:01:27.779Z,100579.22
2023-09-06T04:03:58.102Z,100585.72
2023-09-06T04:06:30.725Z,100584.09
2023-09-06T04:09:00.860Z,100586.50
2023-09-06T04:11:32.485Z,100586.06
2023-09-06T04:14:02.875Z,100593.81
2023-09-06T04:16:33.062Z,100599.91
2023-09-06T04:19:03.346Z,100594.19
2023-09-06T04:21:33.301Z,100595.81
2023-09-06T04:24:03.644Z,100598.22
2023-09-06T04:26:36.476Z,100594.94
2023-09-06T04:29:06.769Z,100594.94
2023-09-06T04:31:37.185Z,100601.84
2023-09-06T04:34:06.974Z,100593.66
2023-09-06T04:36:38.888Z,100602.59
2023-09-06T04:39:11.442Z,100599.31
2023-09-06T04:41:43.514Z,100601.28
2023-09-06T04:44:13.352Z,100598.03
2023-09-06T04:46:43.696Z,100612.66
2023-09-06T04:49:13.828Z,100611.03
2023-09-06T04:51:44.323Z,100614.22
2023-09-06T04:54:13.732Z,100621.94
2023-09-06T04:56:46.072Z,100621.88
2023-09-06T04:59:16.576Z,100625.13
2023-09-06T05:01:46.858Z,100631.22
2023-09-06T05:04:17.430Z,100634.00
2023-09-06T05:06:47.892Z,100629.47
2023-09-06T05:09:19.208Z,100633.50
2023-09-06T05:11:50.611Z,100626.94
2023-09-06T05:14:20.800Z,100631.41
2023-09-06T05:16:50.871Z,100633.41
2023-09-06T05:19:22.867Z,100643.13
2023-09-06T05:21:53.253Z,100647.16
2023-09-06T05:24:22.956Z,100642.63
2023-09-06T05:26:55.407Z,100635.28
2023-09-06T05:29:25.684Z,100641.38
2023-09-06T05:31:56.217Z,100647.81
2023-09-06T05:34:26.671Z,100647.38
2023-09-06T05:36:56.880Z,100635.56
2023-09-06T05:39:27.677Z,100633.06
2023-09-06T05:41:59.629Z,100637.09
2023-09-06T05:44:30.131Z,100639.50
2023-09-06T05:46:59.601Z,100639.91
2023-09-06T05:49:30.245Z,100648.00
2023-09-06T05:52:00.468Z,100649.22
2023-09-06T05:54:30.830Z,100656.91
2023-09-06T05:57:06.097Z,100655.66
2023-09-06T05:59:36.833Z,100651.56
2023-09-06T06:02:07.538Z,100652.72
2023-09-06T06:04:38.629Z,100654.34
2023-09-06T06:07:08.636Z,100655.53
2023-09-06T06:09:38.779Z,100659.59
2023-09-06T06:12:11.695Z,100671.38
2023-09-06T06:14:41.946Z,100673.81
2023-09-06T06:17:12.813Z,100666.84
2023-09-06T06:19:43.174Z,100668.03
2023-09-06T06:22:13.655Z,100659.81
2023-09-06T06:24:46.950Z,100664.69
2023-09-06T06:27:18.686Z,100659.31
2023-09-06T06:29:48.434Z,100660.50
2023-09-06T06:32:19.314Z,100661.69
2023-09-06T06:34:52.237Z,100669.81
2023-09-06T06:37:21.982Z,100664.06
2023-09-06T06:39:52.520Z,100675.41
2023-09-06T06:42:25.290Z,100677.41
2023-09-06T06:44:56.258Z,100665.53
2023-09-06T06:47:25.940Z,100666.72
2023-09-06T06:49:57.645Z,100666.28
2023-09-06T06:52:32.447Z,100676.03
2023-09-06T06:55:05.451Z,100667.81
2023-09-06T06:57:37.804Z,100665.34
2023-09-06T07:00:12.961Z,100665.72
2023-09-06T07:02:42.578Z,100663.66
2023-09-06T07:05:15.677Z,100655.44
2023-09-06T07:07:45.578Z,100656.22
2023-09-06T07:10:16.786Z,100656.59
2023-09-06T07:12:48.054Z,100653.34
2023-09-06T07:15:19.118Z,100651.25
2023-09-06T07:17:49.572Z,100653.69
2023-09-06T07:20:20.563Z,100658.97
2023-09-06T07:22:51.007Z,100652.00
2023-09-06T07:25:21.296Z,100658.06
2023-09-06T07:27:53.962Z,100657.66
2023-09-06T07:30:24.488Z,100653.56
2023-09-06T07:32:54.783Z,100653.56
2023-09-06T07:35:25.192Z,100651.84
2023-09-06T07:37:56.313Z,100651.00
2023-09-06T07:40:26.653Z,100649.38
2023-09-06T07:42:58.644Z,100649.72
2023-09-06T07:45:29.005Z,100647.25
2023-09-06T07:47:58.978Z,100645.59
2023-09-06T07:50:29.815Z,100643.06
2023-09-06T07:53:00.156Z,100647.56
2023-09-06T07:55:29.655Z,100641.75
2023-09-06T07:58:01.365Z,100641.69
2023-09-06T08:00:32.800Z,100635.06
2023-09-06T08:03:03.257Z,100629.72
2023-09-06T08:05:34.313Z,100628.41
2023-09-06T08:08:04.627Z,100625.91
2023-09-06T08:10:34.993Z,100623.34
2023-09-06T08:13:06.756Z,100606.00
2023-09-06T08:15:38.995Z,100616.47
2023-09-06T08:18:10.332Z,100603.28
2023-09-06T08:20:40.818Z,100598.19
2023-09-06T08:23:12.363Z,100599.63
2023-09-06T08:25:42.025Z,100604.38
2023-09-06T08:28:16.147Z,100605.00
2023-09-06T08:30:48.971Z,100598.31
2023-09-06T08:33:19.049Z,100598.94
2023-09-06T08:35:49.350Z,100596.34
2023-09-06T08:38:19.616Z,100594.56
2023-09-06T08:40:50.074Z,100597.25
2023-09-06T08:43:23.592Z,100599.47
2023-09-06T08:45:58.811Z,100600.53
2023-09-06T08:48:31.163Z,100602.41
2023-09-06T08:51:05.633Z,100598.19
2023-09-06T08:53:37.406Z,100607.06
2023-09-06T08:56:10.296Z,100602.84
2023-09-06T08:58:43.058Z,100604.00
2023-09-06T09:01:13.621Z,100601.50
2023-09-06T09:03:44.333Z,100601.84
2023-09-06T09:06:14.757Z,100608.38
2023-09-06T09:08:44.826Z,100603.91
2023-09-06T09:11:16.835Z,100599.00
2023-09-06T09:13:49.429Z,100605.50
2023-09-06T09:16:20.904Z,100606.75
2023-09-06T09:18:51.340Z,100599.41
2023-09-06T09:21:21.946Z,100604.38
2023-09-06T09:23:57.256Z,100602.28
2023-09-06T09:26:27.596Z,100606.41
2023-09-06T09:29:05.005Z,100606.88
2023-09-06T09:31:35.252Z,100604.00
2023-09-06T09:34:06.296Z,100603.22
2023-09-06T09:36:38.270Z,100601.59
2023-09-06T09:39:10.855Z,100613.06
2023-09-06T09:41:58.556Z,100612.25
2023-09-06T09:44:31.342Z,100608.59
2023-09-06T09:47:38.023Z,100610.19
2023-09-06T09:50:08.551Z,100611.09
2023-09-06T09:52:39.764Z,100611.09
2023-09-06T09:55:10.846Z,100611.44
2023-09-06T09:57:42.366Z,100609.84
2023-09-06T10:00:17.186Z,100607.34
2023-09-06T10:02:50.398Z,100605.72
2023-09-06T10:05:23.463Z,100611.44
2023-09-06T10:07:54.580Z,100611.44
2023-09-06T10:10:26.077Z,100614.31
2023-09-06T10:12:57.767Z,100618.06
2023-09-06T10:15:30.718Z,100610.31
2023-09-06T10:18:02.421Z,100605.81
2023-09-06T10:20:36.382Z,100609.47
2023-09-06T10:23:10.309Z,100607.44
2023-09-06T10:25:45.858Z,100608.22
2023-09-06T10:28:18.337Z,100606.19
2023-09-06T10:31:09.656Z,100601.25
2023-09-06T10:34:00.318Z,100613.16
2023-09-06T10:36:31.856Z,100611.97
2023-09-06T10:39:18.224Z,100613.16
2023-09-06T10:42:31.033Z,100603.84
2023-09-06T10:45:14.468Z,100610.41
2023-09-06T10:47:46.370Z,100607.53
2023-09-06T10:50:23.309Z,100602.59
2023-09-06T10:52:56.383Z,100613.28
2023-09-06T10:55:28.300Z,100607.06
2023-09-06T10:58:10.255Z,100604.22
2023-09-06T11:00:42.490Z,100605.00
2023-09-06T11:03:24.435Z,100603.75
2023-09-06T11:06:00.606Z,100595.97
2023-09-06T11:08:34.367Z,100590.25
2023-09-06T11:11:09.990Z,100583.25
2023-09-06T11:13:41.360Z,100592.63
2023-09-06T11:16:17.543Z,100589.78
2023-09-06T11:18:51.921Z,100584.03
2023-09-06T11:21:24.683Z,100575.91
2023-09-06T11:23:57.945Z,100580.03
2023-09-06T11:26:29.126Z,100575.53
2023-09-06T11:29:07.037Z,100584.59
2023-09-06T11:31:40.168Z,100579.31
2023-09-06T11:34:18.549Z,100577.69
2023-09-06T11:36:58.616Z,100569.09
2023-09-06T11:39:30.853Z,100568.72
2023-09-06T11:42:02.343Z,100569.53
2023-09-06T11:44:33.688Z,100574.44
2023-09-06T11:47:08.315Z,100572.41
2023-09-06T11:49:42.169Z,100566.66
2023-09-06T11:52:11.784Z,100572.41
2023-09-06T11:54:41.886Z,100562.53
2023-09-06T11:57:25.532Z,100558.44
2023-09-06T11:59:59.821Z,100568.66
2023-09-06T12:02:36.868Z,100558.00
2023-09-06T12:05:13.007Z,100549.75
2023-09-06T12:07:44.835Z,100556.75
2023-09-06T12:10:22.565Z,100557.09
2023-09-06T12:12:52.991Z,100557.09
2023-09-06T12:15:23.580Z,100560.75
2023-09-06T12:17:54.611Z,100563.19
2023-09-06T12:20:29.532Z,100553.75
2023-09-06T12:23:01.899Z,100563.19
2023-09-06T12:25:32.033Z,100559.50
2023-09-06T12:28:03.147Z,100559.50
2023-09-06T12:30:33.913Z,100552.97
2023-09-06T12:33:05.132Z,100550.91
2023-09-06T12:35:40.128Z,100552.97
2023-09-06T12:38:10.640Z,100547.25
2023-09-06T12:40:41.318Z,100542.31
2023-09-06T12:43:11.105Z,100545.63
2023-09-06T12:45:41.361Z,100547.25
2023-09-06T12:48:11.804Z,100544.38
2023-09-06T12:50:44.042Z,100538.66
2023-09-06T12:53:14.920Z,100544.81
2023-09-06T12:55:45.291Z,100539.06
2023-09-06T12:58:15.698Z,100539.06
2023-09-06T13:00:45.902Z,100551.00
2023-09-06T13:03:16.913Z,100535.88
2023-09-06T13:05:50.748Z,100536.69
2023-09-06T13:08:21.660Z,100540.00
2023-09-06T13:10:52.048Z,100549.84
2023-09-06T13:13:21.741Z,100546.16
2023-09-06T13:15:51.859Z,100549.03
2023-09-06T13:18:22.761Z,100547.38
2023-09-06T13:20:58.837Z,100551.06
2023-09-06T13:23:29.702Z,100549.47
2023-09-06T13:26:10.693Z,100550.25
2023-09-06T13:28:41.251Z,100530.66
2023-09-06T13:31:12.758Z,100539.25
2023-09-06T13:33:44.202Z,100542.13
2023-09-06T13:36:16.933Z,100539.25
2023-09-06T13:38:48.484Z,100541.75
2023-09-06T13:41:18.808Z,100545.44
2023-09-06T13:43:49.194Z,100532.38
2023-09-06T13:46:19.476Z,100540.97
2023-09-06T13:48:50.188Z,100537.75
2023-09-06T13:51:22.769Z,100536.97
2023-09-06T13:53:54.088Z,100532.47
2023-09-06T13:56:24.794Z,100541.50
2023-09-06T13:58:54.506Z,100544.84
2023-09-06T14:01:25.361Z,100534.63
2023-09-06T14:03:55.627Z,100538.75
2023-09-06T14:06:28.145Z,100540.00
2023-09-06T14:08:58.119Z,100539.63
2023-09-06T14:11:27.806Z,100533.59
2023-09-06T14:13:58.242Z,100535.63
2023-09-06T14:16:28.514Z,100536.09
2023-09-06T14:18:58.991Z,100530.78
2023-09-06T14:21:31.948Z,100534.94
2023-09-06T14:24:02.899Z,100529.63
2023-09-06T14:26:33.237Z,100530.88
2023-09-06T14:29:03.409Z,100520.69
2023-09-06T14:31:33.080Z,100524.81
2023-09-06T14:34:03.460Z,100514.63
2023-09-06T14:36:35.420Z,100528.13
2023-09-06T14:39:09.330Z,100525.72
2023-09-06T14:41:40.252Z,100526.19
2023-09-06T14:44:11.232Z,100527.88
2023-09-06T14:46:41.640Z,100525.81
2023-09-06T14:49:12.093Z,100521.78
2023-09-06T14:51:44.857Z,100525.09
2023-09-06T14:54:14.982Z,100524.75
2023-09-06T14:56:45.483Z,100518.22
2023-09-06T14:59:16.201Z,100520.72
2023-09-06T15:01:46.663Z,100519.13
2023-09-06T15:04:17.193Z,100531.81
2023-09-06T15:06:59.141Z,100532.25
2023-09-06T15:09:29.570Z,100529.84
2023-09-06T15:12:02.608Z,100528.22
2023-09-06T15:14:33.514Z,100524.66
2023-09-06T15:17:04.531Z,100527.97
2023-09-06T15:19:34.822Z,100530.00
2023-09-06T15:22:07.200Z,100524.38
2023-09-06T15:24:37.895Z,100528.50
2023-09-06T15:27:08.756Z,100533.06
2023-09-06T15:29:44.222Z,100524.94
2023-09-06T15:32:14.992Z,100530.31
2023-09-06T15:34:45.536Z,100531.56
2023-09-06T15:37:17.499Z,100528.31
2023-09-06T15:39:47.629Z,100530.81
2023-09-06T15:42:18.106Z,100532.53
2023-09-06T15:44:47.873Z,100541.56
2023-09-06T15:47:18.243Z,100548.56
2023-09-06T15:49:49.297Z,100548.19
2023-09-06T15:52:22.556Z,100555.16
2023-09-06T15:54:52.799Z,100553.19
2023-09-06T15:57:23.149Z,100551.59
2023-09-06T15:59:52.972Z,100556.97
2023-09-06T16:02:23.844Z,100562.31
2023-09-06T16:04:54.332Z,100557.06
2023-09-06T16:07:27.582Z,100562.41
2023-09-06T16:09:58.168Z,100554.25
2023-09-06T16:12:28.659Z,100561.66
2023-09-06T16:14:58.273Z,100564.97
2023-09-06T16:17:29.271Z,100574.78
2023-09-06T16:19:58.890Z,100560.13
2023-09-06T16:22:31.353Z,100567.09
2023-09-06T16:25:04.483Z,100563.06
2023-09-06T16:27:34.739Z,100570.03
2023-09-06T16:30:07.357Z,100573.78
2023-09-06T16:32:38.375Z,100586.50
2023-09-06T16:35:10.653Z,100579.16
2023-09-06T16:37:43.484Z,100590.69
2023-09-06T16:40:15.289Z,100587.47
2023-09-06T16:42:45.573Z,100588.72
2023-09-06T16:45:16.329Z,100595.31
2023-09-06T16:47:47.558Z,100599.41
2023-09-06T16:50:18.488Z,100602.72
2023-09-06T16:52:51.633Z,100608.09
2023-09-06T16:55:22.565Z,100614.25
2023-09-06T16:57:55.835Z,100610.56
2023-09-06T17:00:28.308Z,100616.75
2023-09-06T17:02:58.707Z,100614.34
2023-09-06T17:05:28.941Z,100609.03
2023-09-06T17:08:01.381Z,100626.22
2023-09-06T17:10:31.650Z,100618.88
2023-09-06T17:13:02.568Z,100629.97
2023-09-06T17:15:33.600Z,100632.00
2023-09-06T17:18:03.936Z,100633.25
2023-09-06T17:20:34.369Z,100628.78
2023-09-06T17:23:07.737Z,100639.41
2023-09-06T17:25:39.607Z,100632.53
2023-09-06T17:28:12.562Z,100643.16
2023-09-06T17:30:42.787Z,100644.41
2023-09-06T17:33:16.720Z,100653.81
2023-09-06T17:35:49.100Z,100654.63
2023-09-06T17:38:22.766Z,100663.66
2023-09-06T17:40:54.886Z,100655.09
2023-09-06T17:43:27.485Z,100661.22
2023-09-06T17:46:01.046Z,100661.69
2023-09-06T17:48:31.990Z,100652.72
2023-09-06T17:51:10.066Z,100655.59
2023-09-06T17:53:42.846Z,100653.97
2023-09-06T17:56:17.177Z,100651.13
2023-09-06T17:58:51.091Z,100652.34
2023-09-06T18:01:20.857Z,100654.88
2023-09-06T18:03:53.457Z,100654.03
2023-09-06T18:06:26.339Z,100654.50
2023-09-06T18:08:59.350Z,100658.97
2023-09-06T18:11:29.882Z,100656.53
2023-09-06T18:14:00.346Z,100654.91
2023-09-06T18:16:30.983Z,100667.97
2023-09-06T18:19:01.469Z,100665.56
2023-09-06T18:21:31.624Z,100654.13
2023-09-06T18:24:06.302Z,100661.91
2023-09-06T18:26:36.831Z,100665.56
2023-09-06T18:29:06.604Z,100663.16
2023-09-06T18:31:38.279Z,100670.91
2023-09-06T18:34:12.065Z,100666.44
2023-09-06T18:36:43.021Z,100673.38
2023-09-06T18:39:20.144Z,100670.53
2023-09-06T18:41:50.874Z,100676.69
2023-09-06T18:44:21.189Z,100673.84
2023-09-06T18:46:51.316Z,100670.19
2023-09-06T18:49:21.220Z,100668.56
2023-09-06T18:51:51.068Z,100677.16
2023-09-06T18:54:23.423Z,100677.16
2023-09-06T18:56:53.124Z,100677.56
2023-09-06T18:59:23.558Z,100671.06
2023-09-06T19:01:53.187Z,100672.28
2023-09-06T19:04:24.827Z,100668.66
2023-09-06T19:06:56.440Z,100674.34
2023-09-06T19:09:29.433Z,100669.88
2023-09-06T19:11:59.630Z,100666.19
2023-09-06T19:14:29.788Z,100671.91
2023-09-06T19:17:00.636Z,100657.63
2023-09-06T19:19:34.486Z,100659.69
2023-09-06T19:22:05.655Z,100657.63
2023-09-06T19:24:38.164Z,100653.97
2023-09-06T19:27:08.364Z,100651.91
2023-09-06T19:29:38.881Z,100658.06
2023-09-06T19:32:09.847Z,100651.91
2023-09-06T19:34:39.557Z,100648.69
2023-09-06T19:37:10.022Z,100648.69
2023-09-06T19:39:42.633Z,100648.69
2023-09-06T19:42:13.265Z,100636.91
2023-09-06T19:44:45.244Z,100647.50
2023-09-06T19:47:18.457Z,100644.66
2023-09-06T19:49:49.682Z,100642.25
2023-09-06T19:52:21.314Z,100642.25
2023-09-06T19:55:00.210Z,100644.28
2023-09-06T19:57:31.260Z,100639.00
2023-09-06T20:00:02.509Z,100634.91
2023-09-06T20:02:33.063Z,100635.34
2023-09-06T20:05:04.407Z,100635.34
2023-09-06T20:07:34.690Z,100629.63
2023-09-06T20:10:07.659Z,100634.53
2023-09-06T20:12:38.038Z,100628.81
2023-09-06T20:15:10.372Z,100619.44
2023-09-06T20:17:42.439Z,100626.41
2023-09-06T20:20:15.560Z,100614.59
2023-09-06T20:22:45.829Z,100613.81
2023-09-06T20:25:18.364Z,100619.53
2023-09-06T20:27:48.838Z,100616.28
2023-09-06T20:30:19.701Z,100624.88
2023-09-06T20:32:49.443Z,100624.03
2023-09-06T20:35:20.312Z,100618.31
2023-09-06T20:37:51.108Z,100623.66
2023-09-06T20:40:26.308Z,100615.91
2023-09-06T20:42:56.365Z,100615.50
2023-09-06T20:45:28.782Z,100611.03
2023-09-06T20:47:59.385Z,100612.28
2023-09-06T20:50:30.661Z,100594.34
2023-09-06T20:53:01.174Z,100607.00
2023-09-06T20:55:36.859Z,100599.22
2023-09-06T20:58:08.789Z,100595.19
2023-09-06T21:00:39.721Z,100594.41
2023-09-06T21:03:13.146Z,100593.59
2023-09-06T21:05:43.856Z,100607.09
2023-09-06T21:08:14.404Z,100600.53
2023-09-06T21:10:47.884Z,100597.69
2023-09-06T21:13:17.651Z,100588.78
2023-09-06T21:15:49.351Z,100598.13
2023-09-06T21:19:11.764Z,100590.38
2023-09-06T21:25:28.848Z,100581.94
2023-09-06T21:28:57.220Z,100570.09
2023-09-06T21:32:05.081Z,100570.09
2023-09-06T21:35:24.438Z,100569.72
2023-09-06T21:37:54.161Z,100565.25
2023-09-06T21:40:24.427Z,100568.09
2023-09-06T21:43:10.751Z,100563.19
2023-09-06T21:45:50.654Z,100559.53
2023-09-06T21:48:22.414Z,100555.84
2023-09-06T21:51:09.480Z,100548.88
2023-09-06T21:53:40.079Z,100557.91
2023-09-06T21:56:11.046Z,100550.94
2023-09-06T21:58:49.926Z,100552.19
2023-09-06T22:01:27.836Z,100551.41
2023-09-06T22:03:59.468Z,100547.72
2023-09-06T22:06:29.209Z,100551.81
2023-09-06T22:08:59.498Z,100549.78
2023-09-06T22:11:29.334Z,100548.16
2023-09-06T22:13:59.628Z,100547.34
2023-09-06T22:16:32.283Z,100549.41
2023-09-06T22:19:02.793Z,100546.97
2023-09-06T22:21:37.016Z,100550.66
2023-09-06T22:24:08.621Z,100549.03
2023-09-06T22:26:39.042Z,100550.28
2023-09-06T22:29:09.313Z,100552.34
2023-09-06T22:31:42.594Z,100545.81
2023-09-06T22:34:13.206Z,100541.00
2023-09-06T22:36:43.663Z,100541.00
2023-09-06T22:39:13.469Z,100546.72
2023-09-06T22:41:43.667Z,100541.41
2023-09-06T22:44:13.926Z,100543.47
2023-09-06T22:46:46.360Z,100540.63
2023-09-06T22:49:16.086Z,100530.44
2023-09-06T22:51:47.091Z,100529.59
2023-09-06T22:54:17.546Z,100534.53
2023-09-06T22:56:47.840Z,100536.56
2023-09-06T22:59:18.239Z,100534.97
2023-09-06T23:01:53.384Z,100532.13
2023-09-06T23:04:23.197Z,100530.50
2023-09-06T23:06:55.478Z,100532.13
2023-09-06T23:09:25.237Z,100521.94
2023-09-06T23:11:57.616Z,100530.91
2023-09-06T23:14:28.729Z,100525.22
2023-09-06T23:17:00.443Z,100531.75
2023-09-06T23:19:34.333Z,100529.31
2023-09-06T23:22:05.401Z,100528.97
2023-09-06T23:24:37.257Z,100537.53
2023-09-06T23:27:09.261Z,100529.38
2023-09-06T23:29:45.669Z,100525.72
2023-09-06T23:32:21.258Z,100524.13
2023-09-06T23:34:54.678Z,100520.88
2023-09-06T23:37:26.119Z,100524.56
2023-09-06T23:39:57.988Z,100521.34
2023-09-06T23:42:29.063Z,100521.34
2023-09-06T23:44:58.903Z,100525.44
2023-09-06T23:47:32.113Z,100521.75
2023-09-06T23:50:02.724Z,100517.28
2023-09-06T23:52:33.334Z,100517.28
2023-09-06T23:55:03.119Z,100519.31
2023-09-06T23:57:34.033Z,100523.00
